sim
Sign-in with your pilot id or email,
or register
Callsign
Passwort

Schedule Details

Flight Number: DLH1609
Departure: Katowice International Airport (EPKT) at 12:25
Arrival: Munich Airport (EDDM) at 13:45
Route: Lufthansa Passenger Schedule. Enter filed route here before submitting Pirep.

Weather Information
Getting current METAR information for EPKT 202000Z 03002KT CAVOK 10/08 Q1019
Getting current METAR information for EDDM 202020Z 00000KT CAVOK 11/10 Q1016 NOSIG

Schedule Frequency

Route Map